Aviation Digital Data Service (ADDS)

Output produced by METARs form (1916 UTC 24 May 2015)
found at http://www.aviationweather.gov/adds/metars/
 
KAOO 241853Z AUTO VRB05KT 10SM CLR 26/04 A3030 RMK AO2 SLP258 T02560039
KAOO 241753Z AUTO VRB05KT 10SM CLR 25/03 A3033 RMK AO2 SLP266 T02500033 10256 20133 58011
KAOO 241653Z AUTO 00000KT 10SM CLR 23/03 A3035 RMK AO2 SLP273 T02330033
KAOO 241553Z AUTO 22009KT 10SM CLR 23/02 A3036 RMK AO2 SLP277 T02280022
KAOO 241453Z AUTO 23008KT 10SM CLR 22/06 A3036 RMK AO2 SLP279 T02170056 58009
KAOO 241353Z AUTO 20005KT 10SM CLR 19/04 A3038 RMK AO2 SLP285 T01940044
KAOO 241253Z AUTO 00000KT 10SM CLR 17/04 A3039 RMK AO2 SLP288 T01670044
KAOO 241153Z AUTO 00000KT 10SM CLR 13/06 A3039 RMK AO2 SLP289 T01330056 10133 20056 53009
KAOO 241053Z AUTO 00000KT 10SM CLR 09/04 A3037 RMK AO2 SLP285 T00890044
KAOO 240953Z AUTO 00000KT 10SM CLR 08/02 A3037 RMK AO2 SLP283 T00780022
KAOO 240853Z AUTO 00000KT 10SM CLR 07/02 A3036 RMK AO2 SLP281 T00670022 55003
KAOO 240753Z AUTO 26003KT 10SM CLR 08/03 A3036 RMK AO2 SLP281 T00780028
KAOO 240653Z AUTO 00000KT 10SM CLR 09/02 A3037 RMK AO2 SLP283 T00890022
KAOO 240553Z AUTO 00000KT 10SM CLR 10/02 A3037 RMK AO2 SLP285 T01000017 10183 20089 50001
KAOO 240453Z AUTO 26003KT 10SM CLR 12/02 A3038 RMK AO2 SLP286 T01170017 402170011
KAOO 240353Z AUTO 00000KT 10SM CLR 11/02 A3038 RMK AO2 SLP288 T01060022
KAOO 240253Z AUTO 16005KT 10SM CLR 11/02 A3037 RMK AO2 SLP286 T01110022 50005
KAOO 240153Z AUTO 15004KT 10SM CLR 12/02 A3037 RMK AO2 SLP288 T01170017
KAOO 240053Z AUTO 00000KT 10SM CLR 15/01 A3036 RMK AO2 SLP283 T01500006
KAOO 232353Z AUTO 30005KT 10SM CLR 18/M02 A3035 RMK AO2 SLP280 T01831017 10217 20178 55004
KAOO 232253Z AUTO 30007KT 10SM CLR 21/M03 A3035 RMK AO2 SLP279 T02061033
KAOO 232153Z AUTO 31008KT 10SM CLR 21/M03 A3036 RMK AO2 SLP283 T02111033
KAOO 232053Z AUTO 32010KT 10SM CLR 21/M03 A3037 RMK AO2 SLP286 T02111033 56015
KAOO 231953Z AUTO VRB03KT 10SM CLR 21/M05 A3038 RMK AO2 SLP289 T02061050
KAOO 231853Z AUTO 24008KT 10SM CLR 20/M03 A3039 RMK AO2 SLP293 T02001033
KAOO 231753Z AUTO 17005KT 10SM CLR 18/M02 A3041 RMK AO2 SLP301 T01781017 10183 20067 58013
KAOO 231653Z AUTO 00000KT 10SM CLR 16/M02 A3043 RMK AO2 SLP309 T01611022
KAOO 231553Z AUTO 00000KT 10SM CLR 15/M03 A3044 RMK AO2 SLP312 T01501028
KAOO 231453Z AUTO 30006KT 10SM CLR 13/M05 A3045 RMK AO2 SLP314 T01331050 50005
KAOO 231353Z AUTO 26005KT 10SM CLR 11/M04 A3046 RMK AO2 SLP317 T01111039
KAOO 231253Z AUTO 27003KT 10SM CLR 09/M03 A3045 RMK AO2 SLP314 T00941033
KAOO 231153Z AUTO 23003KT 10SM CLR 07/M03 A3043 RMK AO2 SLP310 70002 T00671028 10067 20011 53026
KAOO 231053Z AUTO 00000KT 10SM CLR 04/M01 A3041 RMK AO2 SLP301 T00391011
KAOO 230953Z AUTO 00000KT 10SM CLR 02/M03 A3038 RMK AO2 SLP292 T00171028
KAOO 230853Z AUTO 18003KT 10SM CLR 02/M03 A3035 RMK AO2 SLP285 T00221028 53013
KAOO 230753Z AUTO 19004KT 10SM CLR 02/M03 A3034 RMK AO2 SLP280 T00221028